Time;durP1;ratioP1;P1;durP2;ratioP2;P2;SDS_P1;SDS_P2;PMS_P1;PMS_P2;Temp;Humidity;BMP_temperature;BMP_pressure;BME280_temperature;BME280_humidity;BME280_pressure;Samples;Min_cycle;Max_cycle;Signal;HPM_P1;HPM_P2
2022/05/14 00:01:57;;;;;;;2.30;0.90;;;;;;;18.02;45.89;100996.53;4906767;29;20220;-70
2022/05/14 00:04:27;;;;;;;2.90;1.17;;;;;;;17.95;46.57;101003.59;4910624;29;20208;-70
2022/05/14 00:06:54;;;;;;;3.03;1.10;;;;;;;17.87;46.77;101000.19;4908857;29;20644;-70
2022/05/14 00:09:23;;;;;;;3.83;1.07;;;;;;;17.85;46.90;101010.28;4907849;29;20307;-70
2022/05/14 00:14:36;;;;;;;2.50;0.93;;;;;;;17.53;47.71;101008.66;4906763;29;20217;-70
2022/05/14 00:17:05;;;;;;;2.30;1.07;;;;;;;17.42;47.74;101015.28;4907114;29;20576;-70
2022/05/14 00:19:33;;;;;;;3.20;1.10;;;;;;;17.37;48.02;101006.97;4907337;29;20217;-70
2022/05/14 00:22:01;;;;;;;4.43;1.00;;;;;;;17.34;48.30;101007.31;4906279;29;20205;-70
2022/05/14 00:24:30;;;;;;;5.67;1.13;;;;;;;17.26;49.03;101000.16;4906242;29;20219;-70
2022/05/14 00:26:57;;;;;;;6.57;1.17;;;;;;;17.17;49.50;101011.94;4905685;29;20213;-70
2022/05/14 00:29:27;;;;;;;3.97;1.03;;;;;;;17.15;49.29;101013.16;4907176;29;20240;-70
2022/05/14 00:31:54;;;;;;;3.77;0.97;;;;;;;17.07;49.37;101005.16;4906672;29;20697;-70
2022/05/14 00:34:22;;;;;;;5.43;1.43;;;;;;;17.04;49.28;101010.88;4907664;29;20777;-70
2022/05/14 00:36:50;;;;;;;3.00;1.00;;;;;;;17.00;49.49;101005.03;4910464;29;20313;-70
2022/05/14 00:39:18;;;;;;;4.93;1.10;;;;;;;17.07;49.64;101007.81;4905251;29;20216;-70
2022/05/14 00:41:50;;;;;;;4.60;1.20;;;;;;;17.02;49.45;101012.91;4911290;29;20217;-70
2022/05/14 00:44:18;;;;;;;5.83;1.33;;;;;;;17.00;49.98;101012.22;4909346;29;20267;-70
2022/05/14 00:46:52;;;;;;;3.43;1.10;;;;;;;17.06;49.70;101019.59;4905079;29;20247;-70
2022/05/14 00:49:24;;;;;;;3.43;1.00;;;;;;;17.04;50.06;101008.19;4905324;29;20208;-70
2022/05/14 00:51:52;;;;;;;4.20;1.17;;;;;;;17.02;49.68;101013.72;4906838;29;20697;-70
2022/05/14 00:54:26;;;;;;;7.63;1.30;;;;;;;16.90;50.01;101015.97;4907582;29;20607;-70
2022/05/14 00:56:59;;;;;;;3.50;1.20;;;;;;;16.84;50.60;101022.03;4910373;29;20317;-70
2022/05/14 00:59:27;;;;;;;3.83;1.20;;;;;;;16.70;50.59;101020.09;4909431;29;20201;-70
2022/05/14 01:01:57;;;;;;;5.63;1.20;;;;;;;16.64;50.97;101019.94;4905538;29;20741;-70
2022/05/14 01:04:27;;;;;;;5.57;1.37;;;;;;;16.81;50.58;101018.84;4908653;29;20210;-70
2022/05/14 01:07:03;;;;;;;5.57;1.10;;;;;;;16.99;49.98;101021.28;4913908;29;20248;-70
2022/05/14 01:09:32;;;;;;;3.50;1.50;;;;;;;17.07;49.53;101021.22;4909709;29;20216;-70
2022/05/14 01:12:01;;;;;;;3.30;0.90;;;;;;;17.06;49.62;101024.94;4912551;29;20717;-70
2022/05/14 01:14:29;;;;;;;4.87;1.20;;;;;;;16.93;49.82;101023.66;4909971;29;20543;-70
2022/05/14 01:16:57;;;;;;;5.53;1.53;;;;;;;16.76;50.16;101030.13;4912746;29;20718;-70
2022/05/14 01:19:25;;;;;;;3.47;1.27;;;;;;;16.60;50.92;101037.34;4911317;29;20229;-70
2022/05/14 01:22:07;;;;;;;5.20;1.30;;;;;;;16.52;51.47;101039.06;4909220;29;20228;-70
2022/05/14 01:27:28;;;;;;;3.90;1.10;;;;;;;16.81;50.56;101034.94;4911323;29;20216;-70
2022/05/14 01:29:56;;;;;;;9.87;1.40;;;;;;;16.85;50.57;101031.75;4908890;29;20316;-70
2022/05/14 01:32:24;;;;;;;2.23;1.00;;;;;;;16.95;50.45;101034.22;4910531;29;20340;-70
2022/05/14 01:34:52;;;;;;;7.20;1.70;;;;;;;17.02;50.45;101031.66;4908653;29;20670;-69
2022/05/14 01:37:20;;;;;;;4.97;1.33;;;;;;;17.12;50.05;101032.25;4914163;29;20220;-70
2022/05/14 01:39:48;;;;;;;3.27;1.30;;;;;;;17.17;49.61;101028.03;4909579;29;20212;-69
2022/05/14 01:42:17;;;;;;;6.60;1.37;;;;;;;17.18;49.35;101028.88;4910733;29;20236;-69
2022/05/14 01:44:46;;;;;;;5.27;1.30;;;;;;;17.12;49.46;101032.25;4910229;29;20220;-70
2022/05/14 01:47:14;;;;;;;3.83;1.20;;;;;;;17.10;49.99;101026.25;4910840;29;20666;-69
2022/05/14 01:49:42;;;;;;;2.97;1.13;;;;;;;17.11;49.67;101022.56;4911593;29;20216;-69
2022/05/14 01:52:10;;;;;;;2.37;0.83;;;;;;;17.13;49.56;101028.56;4908604;29;20313;-70
2022/05/14 01:54:38;;;;;;;3.33;1.30;;;;;;;17.13;49.41;101020.53;4913777;29;20232;-69
2022/05/14 01:57:06;;;;;;;6.37;1.23;;;;;;;17.11;49.23;101022.56;4908689;29;20224;-69
2022/05/14 01:59:34;;;;;;;3.43;1.10;;;;;;;17.02;49.56;101023.59;4908776;29;20299;-69
2022/05/14 02:02:05;;;;;;;3.27;1.10;;;;;;;16.78;50.38;101014.72;4909386;29;20393;-69
2022/05/14 02:04:33;;;;;;;4.07;1.20;;;;;;;16.76;50.37;101010.53;4906656;29;20891;-69
2022/05/14 02:07:01;;;;;;;5.37;1.30;;;;;;;16.74;50.48;101010.69;4908905;29;20219;-69
2022/05/14 02:09:30;;;;;;;2.10;1.03;;;;;;;16.73;50.76;101014.38;4908998;29;20216;-69
2022/05/14 02:11:58;;;;;;;2.93;1.10;;;;;;;16.80;50.18;101010.00;4909388;29;20213;-69
2022/05/14 02:14:26;;;;;;;5.03;1.20;;;;;;;16.84;50.34;101016.69;4907276;29;20469;-69
2022/05/14 02:16:54;;;;;;;5.57;1.40;;;;;;;16.89;50.46;101011.63;4912861;29;20406;-70
2022/05/14 02:19:23;;;;;;;3.83;1.10;;;;;;;16.86;50.41;101013.81;4912941;29;20677;-70
2022/05/14 02:21:51;;;;;;;3.13;1.40;;;;;;;16.85;50.33;101012.16;4910227;29;20539;-71
2022/05/14 02:24:19;;;;;;;3.23;1.30;;;;;;;16.87;50.42;101010.97;4908609;29;20212;-70
2022/05/14 02:26:47;;;;;;;4.73;1.20;;;;;;;16.90;50.49;101007.09;4910158;29;20220;-70
2022/05/14 02:29:15;;;;;;;5.87;1.23;;;;;;;16.93;50.64;101009.44;4907824;29;20742;-70
2022/05/14 02:31:42;;;;;;;5.50;1.40;;;;;;;16.94;50.39;101011.09;4908065;29;20695;-70
2022/05/14 02:34:10;;;;;;;4.10;1.23;;;;;;;16.90;50.83;101010.59;4908087;29;20230;-70
2022/05/14 02:36:39;;;;;;;2.37;1.33;;;;;;;16.90;50.49;101010.59;4907905;29;20251;-70
2022/05/14 02:39:07;;;;;;;5.83;1.37;;;;;;;16.84;50.75;101015.84;4904401;29;20221;-70
2022/05/14 02:41:35;;;;;;;4.40;1.37;;;;;;;16.78;51.03;101020.06;4908908;29;20208;-70
2022/05/14 02:44:02;;;;;;;3.17;1.30;;;;;;;16.77;50.99;101014.88;4907873;29;20324;-70
2022/05/14 02:46:30;;;;;;;5.30;1.67;;;;;;;16.81;51.01;101005.47;4908561;29;20223;-70
2022/05/14 02:48:58;;;;;;;6.03;1.83;;;;;;;16.81;51.02;101021.53;4907387;29;20221;-70
2022/05/14 02:51:26;;;;;;;5.77;1.60;;;;;;;16.74;51.09;101021.41;4908891;29;20292;-70
2022/05/14 02:53:55;;;;;;;7.30;1.60;;;;;;;16.71;51.35;101027.09;4910510;29;20629;-70
2022/05/14 02:56:22;;;;;;;4.10;1.60;;;;;;;16.68;51.42;101027.47;4907143;29;20232;-70
2022/05/14 02:59:08;;;;;;;5.40;1.63;;;;;;;16.65;51.67;101026.97;4908238;29;20251;-70
2022/05/14 03:01:48;;;;;;;3.57;1.40;;;;;;;16.63;51.46;101029.81;4907344;29;21457;-70
2022/05/14 03:04:20;;;;;;;3.93;1.60;;;;;;;16.59;51.59;101028.47;4913292;29;20220;-70
2022/05/14 03:06:48;;;;;;;3.73;1.27;;;;;;;16.60;51.41;101035.50;4910666;29;20209;-70
2022/05/14 03:09:17;;;;;;;5.23;1.20;;;;;;;16.61;51.73;101031.00;4907569;29;20712;-70
2022/05/14 03:11:45;;;;;;;7.07;1.50;;;;;;;16.64;51.50;101033.34;4907544;29;20213;-70
2022/05/14 03:14:14;;;;;;;5.73;1.57;;;;;;;16.65;51.49;101038.53;4906786;29;20328;-70
2022/05/14 03:16:43;;;;;;;3.23;1.37;;;;;;;16.60;51.62;101030.16;4907805;29;20263;-70
2022/05/14 03:19:12;;;;;;;4.83;1.33;;;;;;;16.58;52.12;101032.16;4906827;29;20271;-70
2022/05/14 03:21:40;;;;;;;5.30;1.20;;;;;;;16.59;51.89;101033.00;4907032;29;20862;-70
2022/05/14 03:24:10;;;;;;;2.27;1.10;;;;;;;16.57;52.01;101030.50;4909056;29;20256;-70
2022/05/14 03:26:40;;;;;;;2.90;1.03;;;;;;;16.57;51.76;101030.50;4907699;29;20237;-70
2022/05/14 03:29:12;;;;;;;3.10;1.23;;;;;;;16.57;51.50;101030.50;4911805;29;20205;-69
2022/05/14 03:31:41;;;;;;;7.37;1.53;;;;;;;16.50;51.80;101030.34;4908585;29;20379;-69
2022/05/14 03:34:11;;;;;;;3.97;1.00;;;;;;;16.50;51.83;101018.81;4908369;29;20215;-69
2022/05/14 03:36:39;;;;;;;10.93;1.43;;;;;;;16.47;51.61;101022.66;4909143;29;20235;-69
2022/05/14 03:39:07;;;;;;;5.77;1.20;;;;;;;16.48;51.62;101028.84;4906787;29;20708;-69
2022/05/14 03:41:35;;;;;;;4.80;1.10;;;;;;;16.47;51.71;101033.38;4912506;29;20219;-69
2022/05/14 03:44:05;;;;;;;6.33;1.33;;;;;;;16.47;51.69;101029.84;4906729;29;20200;-69
2022/05/14 03:46:33;;;;;;;9.57;1.97;;;;;;;16.42;51.82;101029.56;4907658;29;20197;-70
2022/05/14 03:49:01;;;;;;;10.70;2.20;;;;;;;16.41;51.67;101036.75;4907387;29;20285;-69
2022/05/14 03:51:30;;;;;;;4.90;1.60;;;;;;;16.38;52.07;101025.53;4911483;29;20213;-69
2022/05/14 03:53:58;;;;;;;4.47;1.30;;;;;;;16.40;52.05;101034.25;4908395;29;20219;-69
2022/05/14 03:56:39;;;;;;;3.50;1.23;;;;;;;16.38;52.04;101038.91;4911369;29;20605;-69
2022/05/14 03:59:12;;;;;;;5.17;1.30;;;;;;;16.39;52.28;101043.28;4912447;29;20219;-69
2022/05/14 04:01:40;;;;;;;4.77;1.60;;;;;;;16.41;52.03;101044.78;4909071;29;20677;-69
2022/05/14 04:04:08;;;;;;;3.97;1.33;;;;;;;16.37;52.28;101042.59;4912249;29;20257;-69
2022/05/14 04:06:36;;;;;;;5.43;1.37;;;;;;;16.14;52.98;101048.69;4910954;29;20213;-69
2022/05/14 04:09:13;;;;;;;4.20;1.47;;;;;;;16.05;53.63;101052.38;4909761;29;20208;-70
2022/05/14 04:11:43;;;;;;;6.10;1.30;;;;;;;15.88;53.67;101048.06;4912996;29;20602;-70
2022/05/14 04:14:13;;;;;;;5.33;1.90;;;;;;;15.83;53.75;101047.75;4906902;29;20347;-72
2022/05/14 04:16:40;;;;;;;5.40;1.60;;;;;;;15.83;54.20;101041.56;4912247;29;20307;-70
2022/05/14 04:19:08;;;;;;;3.80;1.57;;;;;;;15.89;53.90;101047.06;4912266;29;20324;-68
2022/05/14 04:21:37;;;;;;;5.10;1.40;;;;;;;15.81;54.13;101041.72;4912548;29;20718;-69
2022/05/14 04:24:07;;;;;;;10.20;1.27;;;;;;;15.85;54.26;101051.06;4920244;29;20340;-69
2022/05/14 04:26:35;;;;;;;4.17;1.50;;;;;;;15.91;54.17;101046.88;4913978;29;20216;-65
2022/05/14 04:29:03;;;;;;;3.77;1.27;;;;;;;15.92;53.93;101052.03;4912226;29;20272;-65
2022/05/14 04:31:32;;;;;;;6.37;1.57;;;;;;;15.93;53.91;101051.03;4914868;29;20313;-65
2022/05/14 04:34:00;;;;;;;5.30;1.97;;;;;;;15.95;53.97;101051.72;4913454;29;20303;-66
2022/05/14 04:36:28;;;;;;;3.20;1.47;;;;;;;15.94;53.64;101049.22;4909511;29;20307;-65
2022/05/14 04:38:55;;;;;;;4.77;1.40;;;;;;;16.00;53.28;101054.75;4910130;29;20220;-65
2022/05/14 04:41:25;;;;;;;4.73;1.60;;;;;;;16.02;53.32;101060.72;4916727;29;20325;-65
2022/05/14 04:43:53;;;;;;;6.00;1.40;;;;;;;16.00;53.91;101060.09;4914924;29;20615;-65
2022/05/14 04:46:21;;;;;;;6.47;1.50;;;;;;;16.03;54.10;101065.09;4918348;29;20299;-66
2022/05/14 04:48:50;;;;;;;7.90;1.80;;;;;;;16.07;53.84;101065.59;4918831;29;20709;-65
2022/05/14 04:51:18;;;;;;;6.20;1.50;;;;;;;16.06;54.03;101070.09;4913261;29;20773;-65
2022/05/14 04:53:46;;;;;;;3.57;1.67;;;;;;;16.01;54.19;101063.56;4914161;29;20213;-65
2022/05/14 04:56:13;;;;;;;7.93;2.00;;;;;;;16.02;54.22;101062.56;4916474;29;20304;-65
2022/05/14 04:58:41;;;;;;;6.37;1.73;;;;;;;16.07;53.89;101061.06;4912076;29;20236;-65
2022/05/14 05:01:09;;;;;;;3.27;1.13;;;;;;;16.11;54.54;101062.41;4914395;29;20311;-65
2022/05/14 05:03:36;;;;;;;3.23;1.10;;;;;;;16.17;54.61;101067.09;4917903;29;20213;-65
2022/05/14 05:06:08;;;;;;;6.50;1.73;;;;;;;16.25;54.13;101068.06;4910463;29;20566;-64
2022/05/14 05:08:37;;;;;;;3.23;1.33;;;;;;;16.31;54.65;101070.06;4914385;29;20201;-64
2022/05/14 05:11:05;;;;;;;7.73;1.73;;;;;;;16.30;55.00;101068.38;4911472;29;20311;-65
2022/05/14 05:13:35;;;;;;;9.40;2.00;;;;;;;16.35;54.89;101074.06;4911049;29;20616;-66
2022/05/14 05:16:03;;;;;;;4.77;1.50;;;;;;;16.41;54.47;101071.53;4911215;29;20237;-66
2022/05/14 05:18:31;;;;;;;6.57;1.87;;;;;;;16.50;54.52;101080.38;4915084;29;20232;-65
2022/05/14 05:20:58;;;;;;;5.87;1.77;;;;;;;16.52;54.74;101075.69;4912758;29;20224;-65
2022/05/14 05:23:28;;;;;;;9.37;2.17;;;;;;;16.50;55.14;101072.34;4911159;29;20220;-65
2022/05/14 05:25:58;;;;;;;3.83;1.53;;;;;;;16.53;54.96;101077.38;4910772;29;20295;-65
2022/05/14 05:28:27;;;;;;;6.43;1.73;;;;;;;16.63;54.37;101074.50;4910038;29;20271;-65
2022/05/14 05:30:56;;;;;;;4.60;1.70;;;;;;;16.66;54.39;101075.00;4913752;29;20244;-65
2022/05/14 05:33:25;;;;;;;4.33;1.70;;;;;;;16.62;54.82;101072.88;4916022;29;20268;-64
2022/05/14 05:35:53;;;;;;;6.23;2.03;;;;;;;16.66;54.75;101077.69;4917862;29;20318;-64
2022/05/14 05:38:21;;;;;;;5.90;1.90;;;;;;;16.76;54.66;101072.13;4914927;29;20319;-64
2022/05/14 05:40:52;;;;;;;5.03;1.70;;;;;;;16.85;54.50;101066.56;4913580;29;20252;-64
2022/05/14 05:43:20;;;;;;;11.67;3.47;;;;;;;16.90;54.45;101080.25;4911953;29;20590;-65
2022/05/14 05:45:49;;;;;;;8.83;2.10;;;;;;;16.88;54.31;101079.63;4911337;29;20264;-65
2022/05/14 05:48:18;;;;;;;6.30;2.10;;;;;;;16.91;54.46;101073.06;4915372;29;20204;-64
2022/05/14 05:50:48;;;;;;;5.57;2.90;;;;;;;16.97;53.83;101080.41;4910902;29;20638;-64
2022/05/14 05:53:17;;;;;;;7.30;2.60;;;;;;;17.01;54.08;101080.88;4911676;29;20662;-66
2022/05/14 05:58:33;;;;;;;7.07;2.17;;;;;;;17.16;54.39;101088.00;4912770;29;20311;-64
2022/05/14 06:01:01;;;;;;;6.27;1.87;;;;;;;17.23;54.07;101088.97;4913203;29;20814;-64
2022/05/14 06:03:29;;;;;;;4.87;2.47;;;;;;;17.30;54.28;101089.09;4910249;29;20595;-64
2022/05/14 06:05:57;;;;;;;7.37;2.13;;;;;;;17.39;53.98;101087.22;4913016;29;20307;-65
2022/05/14 06:08:25;;;;;;;7.30;2.43;;;;;;;17.46;53.65;101091.69;4910883;29;20798;-64
2022/05/14 06:10:53;;;;;;;8.87;2.20;;;;;;;17.52;53.51;101090.97;4909999;29;20221;-65
2022/05/14 06:13:21;;;;;;;5.50;1.90;;;;;;;17.57;53.59;101096.63;4911142;29;20307;-64
2022/05/14 06:15:52;;;;;;;7.57;2.60;;;;;;;17.65;53.27;101096.59;4911392;29;20320;-66
2022/05/14 06:18:20;;;;;;;7.67;2.63;;;;;;;17.70;52.86;101103.25;4914320;29;20235;-65
2022/05/14 06:20:48;;;;;;;10.90;2.27;;;;;;;17.79;52.40;101102.19;4914481;29;20221;-65
2022/05/14 06:23:16;;;;;;;6.33;2.07;;;;;;;17.81;52.47;101106.38;4911847;29;20272;-65
2022/05/14 06:25:43;;;;;;;7.90;1.90;;;;;;;17.87;52.07;101112.84;4911507;29;20239;-65
2022/05/14 06:28:11;;;;;;;7.40;2.33;;;;;;;17.91;52.27;101111.50;4915300;29;20299;-65
2022/05/14 06:30:41;;;;;;;4.27;1.57;;;;;;;17.96;51.75;101115.28;4913219;29;20276;-65
2022/05/14 06:33:15;;;;;;;11.23;2.63;;;;;;;18.02;51.80;101114.59;4907555;29;20244;-64
2022/05/14 06:35:44;;;;;;;7.63;2.30;;;;;;;18.12;51.40;101114.31;4908853;29;20573;-64
2022/05/14 06:38:12;;;;;;;7.13;2.10;;;;;;;18.12;51.43;101116.19;4910136;29;20940;-64
2022/05/14 06:40:40;;;;;;;6.27;1.93;;;;;;;18.17;51.47;101120.00;4908993;29;20244;-68
2022/05/14 06:43:08;;;;;;;7.70;1.93;;;;;;;18.23;51.34;101121.94;4914050;29;20239;-69
2022/05/14 06:45:36;;;;;;;6.27;2.57;;;;;;;18.29;51.03;101120.41;4909546;29;20250;-69
2022/05/14 06:48:05;;;;;;;7.33;2.47;;;;;;;18.33;51.39;101127.03;4913920;29;20209;-69
2022/05/14 06:50:38;;;;;;;6.20;2.37;;;;;;;18.35;51.43;101125.84;4907469;29;20220;-69
2022/05/14 06:53:17;;;;;;;5.30;2.63;;;;;;;18.42;51.50;101126.78;4909824;29;20204;-69
2022/05/14 06:55:49;;;;;;;10.17;2.30;;;;;;;18.50;51.02;101133.91;4906095;29;20248;-69
2022/05/14 06:58:20;;;;;;;11.13;2.10;;;;;;;18.53;50.43;101130.03;4909070;29;20229;-68
2022/05/14 07:00:47;;;;;;;7.37;2.60;;;;;;;18.55;50.32;101128.84;4909638;29;20235;-69
2022/05/14 07:08:48;;;;;;;9.17;2.73;;;;;;;18.69;50.18;101135.28;4913339;29;20227;-65
2022/05/14 07:11:16;;;;;;;8.40;2.50;;;;;;;18.74;50.96;101132.84;4907957;29;20299;-65
2022/05/14 07:13:51;;;;;;;15.90;2.90;;;;;;;18.80;51.25;101140.19;4908368;29;20224;-66
2022/05/14 07:16:19;;;;;;;9.37;2.17;;;;;;;18.84;51.30;101133.41;4911906;29;20213;-69
2022/05/14 07:18:47;;;;;;;11.37;3.63;;;;;;;18.89;51.04;101135.56;4911060;29;20245;-69
2022/05/14 07:21:16;;;;;;;8.97;3.27;;;;;;;18.92;50.76;101127.94;4907830;29;20213;-70
2022/05/14 07:23:44;;;;;;;7.87;2.70;;;;;;;18.97;50.04;101130.06;4908133;29;20671;-70
2022/05/14 07:26:21;;;;;;;9.13;3.33;;;;;;;19.05;49.61;101133.50;4911110;29;20248;-69
2022/05/14 07:28:53;;;;;;;6.60;2.70;;;;;;;19.10;49.39;101141.81;4912615;29;20208;-69
2022/05/14 07:31:21;;;;;;;7.30;2.70;;;;;;;19.18;49.15;101139.03;4912522;29;20244;-69
2022/05/14 07:33:49;;;;;;;5.90;2.23;;;;;;;19.17;49.05;101131.97;4911763;29;20251;-68
2022/05/14 07:36:22;;;;;;;8.63;2.30;;;;;;;19.20;49.50;101124.56;4915427;29;20227;-68
2022/05/14 07:38:50;;;;;;;7.27;2.90;;;;;;;19.26;49.24;101129.22;4912428;29;20264;-68
2022/05/14 07:41:18;;;;;;;11.17;2.57;;;;;;;19.31;48.95;101121.41;4912378;29;20291;-68
2022/05/14 07:43:51;;;;;;;8.43;2.50;;;;;;;19.37;49.31;101128.69;4911794;29;20307;-68
2022/05/14 07:46:23;;;;;;;7.07;2.47;;;;;;;19.38;49.35;101128.50;4916056;29;20696;-68
2022/05/14 07:48:53;;;;;;;10.23;2.43;;;;;;;19.47;47.87;101126.53;4911572;29;20276;-68
2022/05/14 07:51:22;;;;;;;25.07;3.00;;;;;;;19.56;47.76;101127.28;4913427;29;20213;-68
2022/05/14 07:53:50;;;;;;;15.80;3.07;;;;;;;19.64;48.44;101121.78;4914106;29;20682;-68
2022/05/14 07:56:18;;;;;;;9.37;1.80;;;;;;;19.79;48.12;101120.69;4913645;29;20717;-69
2022/05/14 07:58:47;;;;;;;7.37;2.33;;;;;;;19.87;47.46;101122.44;4913058;29;20323;-69
2022/05/14 08:01:15;;;;;;;6.80;1.73;;;;;;;19.81;47.23;101117.81;4912952;29;20273;-69
2022/05/14 08:03:43;;;;;;;7.47;1.90;;;;;;;19.78;46.83;101119.03;4912678;29;20303;-70
2022/05/14 08:06:11;;;;;;;9.83;2.63;;;;;;;19.88;48.21;101124.91;4912140;29;20304;-69
2022/05/14 08:08:40;;;;;;;10.83;2.70;;;;;;;19.98;48.64;101129.13;4912267;29;20212;-70
2022/05/14 08:11:08;;;;;;;10.03;2.37;;;;;;;20.02;48.02;101125.88;4911957;29;20244;-70
2022/05/14 08:13:36;;;;;;;6.30;2.20;;;;;;;20.13;47.50;101125.38;4911569;29;20315;-70
2022/05/14 08:16:04;;;;;;;7.50;2.50;;;;;;;20.21;48.24;101125.22;4912068;29;20220;-70
2022/05/14 08:18:33;;;;;;;8.87;2.67;;;;;;;20.31;47.59;101119.50;4911039;29;20271;-69
2022/05/14 08:24:29;;;;;;;7.77;2.07;;;;;;;20.34;47.15;101119.13;4913470;29;20311;-69
2022/05/14 08:26:36;;;;;;;7.53;2.30;;;;;;;20.61;47.50;101120.97;4909313;29;20208;-70
2022/05/14 08:29:04;;;;;;;7.57;2.37;;;;;;;20.72;46.96;101124.13;4911134;29;20213;-70
2022/05/14 08:31:32;;;;;;;6.83;2.47;;;;;;;20.65;47.10;101116.03;4912067;29;20283;-69
2022/05/14 08:34:00;;;;;;;6.87;1.97;;;;;;;20.71;46.99;101125.16;4911463;29;20213;-68
2022/05/14 08:36:29;;;;;;;10.53;2.67;;;;;;;20.85;45.75;101116.09;4912230;29;20551;-69
2022/05/14 08:38:58;;;;;;;8.23;2.20;;;;;;;20.97;43.73;101114.53;4910932;29;20337;-70
2022/05/14 08:41:26;;;;;;;10.17;2.23;;;;;;;20.92;44.66;101111.59;4909319;29;20718;-70
2022/05/14 08:43:59;;;;;;;8.10;2.20;;;;;;;20.99;45.37;101107.91;4911115;29;20311;-70
2022/05/14 08:46:28;;;;;;;7.47;1.77;;;;;;;20.96;45.81;101112.84;4911581;29;20244;-70
2022/05/14 08:49:02;;;;;;;5.43;2.20;;;;;;;21.14;45.73;101105.06;4912031;29;20205;-70
2022/05/14 08:51:35;;;;;;;6.93;2.10;;;;;;;21.28;45.17;101104.13;4910433;29;20462;-70
2022/05/14 08:54:05;;;;;;;6.47;2.40;;;;;;;21.36;45.33;101101.22;4912554;29;20232;-70
2022/05/14 08:56:41;;;;;;;6.20;2.00;;;;;;;21.49;46.39;101110.38;4911874;29;20311;-70
2022/05/14 08:59:27;;;;;;;6.83;2.43;;;;;;;21.44;44.98;101099.38;4912411;29;20221;-70
2022/05/14 09:02:00;;;;;;;7.00;2.40;;;;;;;21.46;44.56;101092.72;4913566;29;20232;-70
2022/05/14 09:04:32;;;;;;;8.47;2.67;;;;;;;21.52;44.04;101091.09;4908097;29;20209;-69
2022/05/14 09:06:59;;;;;;;7.10;2.20;;;;;;;21.58;43.60;101101.06;4917430;29;20219;-69
2022/05/14 09:09:29;;;;;;;8.60;2.43;;;;;;;21.71;43.47;101093.81;4922575;29;20239;-68
2022/05/14 09:11:59;;;;;;;8.63;2.50;;;;;;;21.85;43.70;101096.53;4911411;29;20241;-68
2022/05/14 09:14:32;;;;;;;7.30;2.50;;;;;;;21.92;43.62;101092.78;4911243;29;20452;-69
2022/05/14 09:17:04;;;;;;;10.47;2.30;;;;;;;21.94;42.97;101089.88;4914001;29;20236;-69
2022/05/14 09:19:36;;;;;;;7.87;2.37;;;;;;;21.98;42.80;101086.59;4911964;29;20239;-68
2022/05/14 09:22:29;;;;;;;6.47;2.03;;;;;;;22.17;43.68;101081.38;4912354;29;20591;-70
2022/05/14 09:25:06;;;;;;;10.67;2.43;;;;;;;22.21;43.55;101082.63;4912088;29;20281;-69
2022/05/14 09:27:44;;;;;;;6.87;2.20;;;;;;;22.19;42.78;101082.84;4915932;29;20251;-69
2022/05/14 09:30:22;;;;;;;11.37;2.73;;;;;;;22.29;42.48;101082.41;4912161;29;20277;-69
2022/05/14 09:32:50;;;;;;;8.40;2.53;;;;;;;22.44;42.54;101081.13;4915344;29;20338;-68
2022/05/14 09:35:23;;;;;;;8.17;2.40;;;;;;;22.50;42.96;101074.06;4914948;29;20216;-68
2022/05/14 09:37:51;;;;;;;5.45;2.28;;;;;;;22.53;43.11;101084.44;4916137;29;20208;-69
2022/05/14 09:40:25;;;;;;;10.10;2.70;;;;;;;22.34;42.12;101078.03;4912314;29;20308;-69
2022/05/14 09:43:06;;;;;;;4.60;1.97;;;;;;;22.53;42.32;101082.56;4913861;29;20324;-70
2022/05/14 09:45:37;;;;;;;5.65;1.95;;;;;;;22.54;42.39;101080.69;4911727;29;20733;-69
2022/05/14 09:48:14;;;;;;;6.60;2.20;;;;;;;22.68;41.45;101068.81;4916321;29;20596;-69
2022/05/14 09:50:44;;;;;;;7.55;2.35;;;;;;;22.66;40.95;101068.19;4914983;29;20206;-69
2022/05/14 09:53:12;;;;;;;9.38;2.40;;;;;;;22.77;40.58;101067.56;4913895;29;20240;-70
2022/05/14 09:56:07;;;;;;;7.93;2.50;;;;;;;22.95;41.25;101068.75;4914827;29;20263;-70
2022/05/14 09:58:40;;;;;;;6.35;2.20;;;;;;;23.06;41.61;101062.66;4910481;29;20211;-69
2022/05/14 10:01:11;;;;;;;8.43;2.10;;;;;;;23.08;40.79;101063.28;4912381;29;20239;-69
2022/05/14 10:03:54;;;;;;;5.03;1.95;;;;;;;23.10;40.80;101067.44;4912771;29;20216;-70
2022/05/14 10:06:38;;;;;;;6.03;1.60;;;;;;;23.13;40.28;101075.09;4912972;29;20279;-70
2022/05/14 10:09:15;;;;;;;5.50;2.25;;;;;;;23.07;39.11;101065.13;4913134;29;20247;-70
2022/05/14 10:11:48;;;;;;;5.80;1.75;;;;;;;23.26;39.31;101074.22;4914848;29;20213;-69
2022/05/14 10:14:28;;;;;;;4.93;1.88;;;;;;;23.26;38.56;101064.22;4912676;29;20387;-69
2022/05/14 10:17:07;;;;;;;7.68;1.85;;;;;;;23.44;38.59;101066.19;4915453;29;20209;-69
2022/05/14 10:20:12;;;;;;;5.30;1.75;;;;;;;23.49;37.42;101069.09;4914277;29;20328;-69
2022/05/14 10:28:47;;;;;;;7.75;1.80;;;;;;;23.68;37.72;101072.72;4910899;29;20213;-69
2022/05/14 10:31:25;;;;;;;3.95;1.70;;;;;;;23.79;37.42;101079.31;4913564;29;20742;-70
2022/05/14 10:34:02;;;;;;;8.63;2.03;;;;;;;23.68;37.67;101067.28;4912033;29;20677;-70
2022/05/14 10:36:38;;;;;;;5.95;1.85;;;;;;;23.88;37.79;101067.16;4913351;29;20204;-70
2022/05/14 10:39:13;;;;;;;12.00;1.90;;;;;;;23.79;38.30;101065.75;4912184;29;20261;-71
2022/05/14 10:41:46;;;;;;;8.48;3.15;;;;;;;23.94;38.51;101055.41;4913501;29;20225;-70
2022/05/14 10:44:23;;;;;;;5.28;1.83;;;;;;;24.12;37.28;101055.47;4913839;29;20296;-70
2022/05/14 10:46:51;;;;;;;6.28;1.63;;;;;;;24.06;37.39;101053.66;4915288;29;20212;-70
2022/05/14 10:49:26;;;;;;;11.43;2.05;;;;;;;23.99;36.89;101052.88;4913962;29;20244;-70
2022/05/14 10:51:55;;;;;;;7.10;2.10;;;;;;;24.14;37.09;101045.25;4912727;29;20872;-69
2022/05/14 10:54:26;;;;;;;5.70;2.08;;;;;;;24.35;36.98;101044.84;4910808;29;20216;-68
2022/05/14 10:56:57;;;;;;;10.35;1.92;;;;;;;24.45;36.82;101040.78;4913611;29;20252;-69
2022/05/14 10:59:34;;;;;;;5.18;1.42;;;;;;;24.62;36.33;101037.25;4912597;29;20292;-68
2022/05/14 11:02:05;;;;;;;4.95;1.90;;;;;;;24.79;36.13;101036.63;4911565;29;20229;-68
2022/05/14 11:04:43;;;;;;;10.82;2.33;;;;;;;24.70;35.85;101034.25;4910751;29;20320;-69
2022/05/14 11:07:14;;;;;;;8.98;1.77;;;;;;;25.06;35.26;101038.81;4912961;29;20612;-69
2022/05/14 11:09:44;;;;;;;6.22;1.95;;;;;;;24.96;35.28;101033.09;4913778;29;20331;-69
2022/05/14 11:12:15;;;;;;;6.18;1.58;;;;;;;24.96;35.49;101037.69;4912840;29;20283;-69
2022/05/14 11:14:47;;;;;;;7.55;2.15;;;;;;;25.03;34.81;101031.13;4912785;29;20255;-69
2022/05/14 11:17:23;;;;;;;7.05;1.85;;;;;;;25.05;34.59;101036.31;4910537;29;20656;-69
2022/05/14 11:19:51;;;;;;;8.15;2.70;;;;;;;25.18;35.19;101032.59;4911273;29;20254;-69
2022/05/14 11:22:22;;;;;;;6.15;2.08;;;;;;;25.26;34.61;101027.66;4912821;29;20213;-69
2022/05/14 11:24:52;;;;;;;5.55;1.90;;;;;;;25.28;34.94;101025.53;4912384;29;20666;-69
2022/05/14 11:27:32;;;;;;;5.22;1.95;;;;;;;25.31;34.62;101030.53;4912063;29;20230;-69
2022/05/14 11:30:05;;;;;;;20.35;12.43;;;;;;;25.51;33.68;101029.41;4912497;29;20219;-69
2022/05/14 11:32:42;;;;;;;12.00;7.15;;;;;;;25.46;33.81;101027.38;4915553;29;20253;-69
2022/05/14 11:35:10;;;;;;;7.25;2.15;;;;;;;25.50;33.99;101025.84;4908964;29;20201;-69
2022/05/14 11:37:43;;;;;;;7.22;1.90;;;;;;;25.51;34.36;101022.03;4911944;29;20240;-70
2022/05/14 11:40:26;;;;;;;8.50;1.73;;;;;;;25.56;34.20;101015.94;4912348;29;20249;-70
2022/05/14 11:43:08;;;;;;;3.40;1.60;;;;;;;25.40;33.52;101009.31;4910978;29;20245;-70
2022/05/14 11:45:41;;;;;;;6.93;2.17;;;;;;;25.30;33.73;101014.47;4917287;29;20741;-70
2022/05/14 11:48:16;;;;;;;4.38;1.70;;;;;;;25.31;33.93;101014.22;4913229;29;20220;-69
2022/05/14 11:50:57;;;;;;;5.57;1.60;;;;;;;25.11;34.99;101016.41;4910071;29;20291;-69
2022/05/14 11:53:32;;;;;;;6.10;1.52;;;;;;;25.13;35.79;101021.59;4906730;29;20235;-69
2022/05/14 11:56:06;;;;;;;7.55;1.33;;;;;;;25.12;36.10;101015.34;4912405;29;23374;-69
2022/05/14 11:58:41;;;;;;;6.05;1.90;;;;;;;24.94;36.47;101021.66;4911469;29;20214;-69
2022/05/14 12:01:18;;;;;;;13.38;1.98;;;;;;;24.91;36.03;101015.81;4912549;29;20578;-71
2022/05/14 12:03:47;;;;;;;8.98;1.98;;;;;;;24.79;35.80;101015.78;4909605;29;20219;-69